Time;durP1;ratioP1;P1;durP2;ratioP2;P2;SDS_P1;SDS_P2;PMS_P1;PMS_P2;Temp;Humidity;BMP_temperature;BMP_pressure;BME280_temperature;BME280_humidity;BME280_pressure;Samples;Min_cycle;Max_cycle;Signal;HPM_P1;HPM_P2
2022/09/11 00:01:14;;;;;;;9.25;4.70;;;18.50;74.90;;;;;;5006558;28;20578;-81
2022/09/11 00:03:46;;;;;;;8.52;4.07;;;18.50;75.20;;;;;;5019757;28;20051;-81
2022/09/11 00:06:15;;;;;;;6.60;3.90;;;18.50;75.40;;;;;;5031567;28;20604;-81
2022/09/11 00:08:42;;;;;;;5.78;4.05;;;18.40;75.00;;;;;;4998044;28;20042;-81
2022/09/11 00:11:17;;;;;;;6.65;3.40;;;18.50;75.10;;;;;;4996106;28;20030;-81
2022/09/11 00:13:45;;;;;;;6.32;3.38;;;18.40;74.90;;;;;;4996606;28;20447;-81
2022/09/11 00:16:21;;;;;;;5.22;3.53;;;18.40;75.00;;;;;;4997613;28;20691;-81
2022/09/11 00:18:48;;;;;;;7.43;3.40;;;18.40;75.10;;;;;;5012856;28;20031;-81
2022/09/11 00:21:15;;;;;;;4.90;3.63;;;18.40;75.10;;;;;;4997655;28;20034;-81
2022/09/11 00:23:40;;;;;;;9.45;3.55;;;18.50;75.10;;;;;;4998391;28;20066;-81
2022/09/11 00:26:06;;;;;;;5.47;3.35;;;18.50;74.90;;;;;;5012550;28;20085;-81
2022/09/11 00:28:33;;;;;;;5.18;3.28;;;18.50;75.10;;;;;;4998022;28;20041;-81
2022/09/11 00:31:04;;;;;;;5.82;3.33;;;18.50;74.80;;;;;;4996534;28;20014;-81
2022/09/11 00:33:32;;;;;;;5.57;3.58;;;18.50;75.00;;;;;;5009585;28;20075;-81
2022/09/11 00:36:06;;;;;;;5.28;3.35;;;18.50;75.00;;;;;;5016471;28;20026;-81
2022/09/11 00:38:35;;;;;;;7.18;3.78;;;18.40;74.90;;;;;;5017052;28;20026;-81
2022/09/11 00:41:03;;;;;;;7.78;3.53;;;18.40;74.90;;;;;;5002748;28;20084;-81
2022/09/11 00:44:00;;;;;;;4.95;2.92;;;18.50;74.90;;;;;;4997317;28;20576;-81
2022/09/11 00:46:34;;;;;;;9.30;3.40;;;18.50;74.90;;;;;;4996063;28;20038;-81
2022/09/11 00:49:04;;;;;;;6.75;3.67;;;18.50;74.70;;;;;;5012622;28;20649;-81
2022/09/11 00:51:34;;;;;;;6.50;3.05;;;18.40;74.90;;;;;;4996818;28;20756;-81
2022/09/11 00:54:02;;;;;;;7.43;3.73;;;18.40;74.80;;;;;;4996945;28;20478;-81
2022/09/11 00:56:30;;;;;;;6.63;3.33;;;18.40;74.90;;;;;;4997087;28;20506;-81
2022/09/11 00:58:57;;;;;;;5.80;2.95;;;18.40;75.00;;;;;;4997104;28;20059;-81
2022/09/11 01:01:23;;;;;;;5.68;2.75;;;18.30;75.00;;;;;;5011794;28;20026;-81
2022/09/11 01:03:49;;;;;;;8.82;3.55;;;18.30;74.90;;;;;;4996859;28;20045;-81
2022/09/11 01:06:19;;;;;;;4.97;3.00;;;18.30;74.80;;;;;;4996690;28;20030;-81
2022/09/11 01:08:45;;;;;;;6.43;3.13;;;18.30;75.20;;;;;;5012344;28;20520;-81
2022/09/11 01:11:29;;;;;;;6.95;3.08;;;18.30;75.10;;;;;;4996653;28;20022;-81
2022/09/11 01:13:58;;;;;;;5.35;3.10;;;18.30;75.00;;;;;;5012084;28;20034;-81
2022/09/11 01:16:32;;;;;;;4.90;2.97;;;18.30;75.30;;;;;;4996995;28;20041;-81
2022/09/11 01:19:00;;;;;;;6.82;3.70;;;18.20;75.50;;;;;;5011903;28;20050;-81
2022/09/11 01:21:40;;;;;;;7.50;3.22;;;18.20;75.70;;;;;;5011525;28;20034;-81
2022/09/11 01:24:43;;;;;;;10.05;3.70;;;18.20;75.70;;;;;;4997707;28;20037;-81
2022/09/11 01:27:38;;;;;;;6.68;3.28;;;18.10;76.00;;;;;;5035820;28;20448;-81
2022/09/11 01:30:17;;;;;;;8.25;3.40;;;18.10;75.90;;;;;;5036256;28;20501;-81
2022/09/11 01:32:48;;;;;;;4.25;3.30;;;18.00;76.10;;;;;;5008611;28;20078;-81
2022/09/11 01:35:46;;;;;;;6.20;3.17;;;18.10;75.90;;;;;;5024613;28;20068;-81
2022/09/11 01:38:40;;;;;;;9.32;3.13;;;18.20;75.80;;;;;;5015985;28;20026;-81
2022/09/11 01:41:16;;;;;;;6.25;3.35;;;18.20;75.70;;;;;;5011699;28;20030;-81
2022/09/11 01:43:50;;;;;;;6.82;4.10;;;18.20;75.80;;;;;;4993893;28;20074;-81
2022/09/11 01:46:24;;;;;;;6.40;2.92;;;18.20;75.60;;;;;;4996499;28;20034;-81
2022/09/11 01:49:10;;;;;;;6.47;3.17;;;18.20;75.60;;;;;;4999136;28;20072;-81
2022/09/11 01:51:39;;;;;;;5.78;3.28;;;18.20;75.50;;;;;;5013032;28;20056;-81
2022/09/11 01:54:09;;;;;;;8.60;3.33;;;18.20;75.50;;;;;;5015824;28;20056;-81
2022/09/11 01:56:41;;;;;;;5.85;3.50;;;18.20;75.70;;;;;;5030566;28;20034;-81
2022/09/11 01:59:11;;;;;;;5.43;3.35;;;18.10;75.70;;;;;;5012998;28;20029;-81
2022/09/11 02:01:39;;;;;;;;;;;18.20;75.70;;;;;;4995636;28;20026;-82
2022/09/11 02:04:14;;;;;;;5.82;3.25;;;18.10;75.80;;;;;;4995972;28;20060;-81
2022/09/11 02:06:51;;;;;;;5.05;3.17;;;18.20;75.70;;;;;;5011208;28;20038;-81
2022/09/11 02:09:23;;;;;;;4.97;2.92;;;18.00;75.60;;;;;;5010964;28;20444;-81
2022/09/11 02:11:53;;;;;;;6.05;3.28;;;18.10;75.60;;;;;;5011379;28;20034;-81
2022/09/11 02:14:37;;;;;;;7.78;3.67;;;18.00;75.60;;;;;;4994601;28;20030;-81
2022/09/11 02:17:11;;;;;;;6.82;3.80;;;18.00;75.60;;;;;;4994133;28;20038;-81
2022/09/11 02:19:39;;;;;;;5.45;2.95;;;18.00;75.40;;;;;;4995647;28;20030;-81
2022/09/11 02:22:06;;;;;;;7.88;3.20;;;18.00;75.40;;;;;;4995639;28;20026;-81
2022/09/11 02:24:32;;;;;;;6.28;3.30;;;18.00;75.20;;;;;;4995865;28;20018;-81
2022/09/11 02:27:05;;;;;;;5.47;2.88;;;18.00;75.30;;;;;;5010684;28;20038;-81
2022/09/11 02:29:31;;;;;;;8.48;3.55;;;18.00;75.30;;;;;;5011407;28;20483;-81
2022/09/11 02:31:59;;;;;;;4.47;3.05;;;17.90;75.40;;;;;;4995631;28;20027;-81
2022/09/11 02:34:28;;;;;;;8.55;3.13;;;17.90;75.50;;;;;;5017545;28;20091;-81
2022/09/11 02:37:25;;;;;;;6.35;3.85;;;17.80;75.90;;;;;;4980581;28;20042;-81
2022/09/11 02:40:25;;;;;;;8.13;3.83;;;17.80;75.90;;;;;;5001217;28;20039;-81
2022/09/11 02:42:51;;;;;;;;;;;17.80;75.80;;;;;;4995900;28;20110;-81
2022/09/11 02:45:43;;;;;;;6.90;3.30;;;17.80;75.90;;;;;;5009935;28;20361;-81
2022/09/11 02:48:30;;;;;;;5.70;2.97;;;17.80;76.00;;;;;;5030598;28;20493;-81
2022/09/11 02:51:07;;;;;;;6.35;3.17;;;17.70;75.80;;;;;;5012073;28;20485;-81
2022/09/11 02:53:55;;;;;;;7.20;3.45;;;17.70;75.70;;;;;;4996118;28;20508;-81
2022/09/11 02:56:30;;;;;;;5.88;3.38;;;17.70;75.60;;;;;;4999253;28;20077;-81
2022/09/11 02:59:02;;;;;;;4.03;2.95;;;17.70;75.70;;;;;;4999543;28;20050;-81
2022/09/11 03:01:28;;;;;;;9.50;4.38;;;17.60;75.90;;;;;;5014038;28;20035;-82
2022/09/11 03:03:53;;;;;;;4.57;3.45;;;17.70;76.10;;;;;;4999255;28;20030;-81
2022/09/11 03:06:22;;;;;;;6.57;3.88;;;17.70;76.00;;;;;;4999001;28;20493;-81
2022/09/11 03:08:48;;;;;;;6.47;3.72;;;17.60;76.00;;;;;;4998124;28;20053;-81
2022/09/11 03:11:14;;;;;;;8.05;3.85;;;17.50;76.50;;;;;;5014498;28;20031;-81
2022/09/11 03:13:40;;;;;;;9.50;3.95;;;17.50;76.70;;;;;;5014196;28;20117;-81
2022/09/11 03:16:06;;;;;;;7.55;3.92;;;17.50;76.50;;;;;;4997740;28;20049;-81
2022/09/11 03:18:33;;;;;;;5.63;3.75;;;17.50;76.70;;;;;;4997304;28;20033;-81
2022/09/11 03:20:59;;;;;;;5.18;3.42;;;17.30;77.10;;;;;;5014135;28;20038;-81
2022/09/11 03:23:25;;;;;;;9.25;3.35;;;17.30;77.10;;;;;;4998970;28;20054;-81
2022/09/11 03:25:51;;;;;;;6.60;3.28;;;17.40;76.80;;;;;;4996980;28;20081;-82
2022/09/11 03:28:17;;;;;;;8.13;4.10;;;17.40;76.70;;;;;;4998569;28;20050;-81
2022/09/11 03:30:42;;;;;;;7.13;3.55;;;17.40;76.40;;;;;;4997354;28;20026;-81
2022/09/11 03:33:08;;;;;;;6.07;4.00;;;17.50;76.40;;;;;;4998594;28;20018;-81
2022/09/11 03:35:34;;;;;;;8.07;4.05;;;17.40;76.40;;;;;;5020826;28;20034;-81
2022/09/11 03:38:00;;;;;;;8.93;3.83;;;17.50;76.30;;;;;;5013070;28;20027;-81
2022/09/11 03:40:29;;;;;;;5.88;4.45;;;17.40;76.40;;;;;;4998932;28;20104;-81
2022/09/11 03:42:54;;;;;;;9.02;3.85;;;17.50;76.50;;;;;;4998285;28;20046;-81
2022/09/11 03:45:20;;;;;;;5.63;3.65;;;17.50;76.30;;;;;;4998452;28;20775;-81
2022/09/11 03:47:46;;;;;;;6.97;4.50;;;17.40;76.50;;;;;;4998366;28;20026;-81
2022/09/11 03:50:12;;;;;;;6.38;4.18;;;17.40;76.60;;;;;;4998272;28;20036;-81
2022/09/11 03:52:38;;;;;;;6.20;3.90;;;17.30;76.70;;;;;;5013242;28;20020;-81
2022/09/11 03:55:05;;;;;;;7.63;3.67;;;17.30;76.70;;;;;;4996660;28;20441;-81
2022/09/11 03:57:34;;;;;;;6.93;3.63;;;17.30;77.00;;;;;;4997731;28;20026;-81
2022/09/11 04:00:01;;;;;;;4.65;3.33;;;17.30;76.90;;;;;;4998188;28;20796;-81
2022/09/11 04:02:26;;;;;;;4.43;3.25;;;17.30;76.80;;;;;;5012995;28;20030;-81
2022/09/11 04:04:52;;;;;;;5.43;3.47;;;17.30;76.80;;;;;;4998420;28;20030;-81
2022/09/11 04:07:18;;;;;;;7.30;3.17;;;17.30;77.00;;;;;;4996152;28;20405;-81
2022/09/11 04:09:43;;;;;;;6.45;3.75;;;17.30;76.90;;;;;;4998370;28;20030;-81
2022/09/11 04:12:10;;;;;;;5.80;3.42;;;17.30;77.10;;;;;;5012990;28;20034;-81
2022/09/11 04:14:35;;;;;;;5.30;3.67;;;17.30;77.00;;;;;;4997942;28;20072;-81
2022/09/11 04:17:01;;;;;;;5.60;3.67;;;17.30;77.00;;;;;;4997345;28;20105;-81
2022/09/11 04:19:28;;;;;;;5.70;3.25;;;17.20;77.10;;;;;;4998262;28;20034;-81
2022/09/11 04:21:53;;;;;;;5.88;3.80;;;17.20;77.20;;;;;;5012782;28;20117;-81
2022/09/11 04:24:19;;;;;;;6.45;3.70;;;17.20;77.30;;;;;;4997830;28;20066;-81
2022/09/11 04:26:45;;;;;;;8.35;3.65;;;17.10;77.30;;;;;;4998307;28;20030;-81
2022/09/11 04:29:11;;;;;;;5.65;3.67;;;17.10;77.30;;;;;;4996202;28;20086;-81
2022/09/11 04:31:37;;;;;;;6.30;4.35;;;17.20;77.20;;;;;;5012942;28;20473;-82
2022/09/11 04:34:03;;;;;;;8.90;3.25;;;17.20;77.20;;;;;;5016163;28;20445;-81
2022/09/11 04:36:29;;;;;;;4.93;3.53;;;17.20;77.10;;;;;;5016453;28;20030;-81
2022/09/11 04:38:56;;;;;;;5.00;3.38;;;17.20;77.00;;;;;;5004508;28;20045;-81
2022/09/11 04:41:22;;;;;;;6.38;3.75;;;17.10;77.30;;;;;;5012534;28;20029;-81
2022/09/11 04:43:48;;;;;;;7.03;3.72;;;17.10;77.20;;;;;;5012457;28;20084;-81
2022/09/11 04:46:16;;;;;;;5.90;4.07;;;17.00;77.50;;;;;;4997249;28;20038;-81
2022/09/11 04:48:46;;;;;;;5.13;3.70;;;17.00;78.00;;;;;;4997306;28;20078;-81
2022/09/11 04:51:27;;;;;;;9.15;3.95;;;16.90;78.00;;;;;;4997797;28;20548;-81
2022/09/11 04:53:56;;;;;;;8.02;3.70;;;16.90;78.20;;;;;;5012144;28;20125;-81
2022/09/11 04:56:30;;;;;;;7.63;3.90;;;16.90;78.20;;;;;;4996576;28;20401;-81
2022/09/11 04:59:00;;;;;;;5.50;3.33;;;17.00;78.00;;;;;;4997568;28;20026;-81
2022/09/11 05:01:27;;;;;;;;;;;17.00;77.60;;;;;;5001197;28;20025;-81
2022/09/11 05:03:52;;;;;;;5.45;3.30;;;17.00;77.40;;;;;;5019802;28;20272;-81
2022/09/11 05:06:18;;;;;;;7.70;4.28;;;17.00;77.60;;;;;;4998166;28;20041;-81
2022/09/11 05:08:45;;;;;;;11.13;4.18;;;17.00;77.80;;;;;;5016986;28;20113;-81
2022/09/11 05:11:17;;;;;;;9.00;4.40;;;16.90;78.20;;;;;;4999043;28;20552;-81
2022/09/11 05:13:43;;;;;;;6.47;3.88;;;16.90;78.10;;;;;;5017027;28;20038;-81
2022/09/11 05:16:14;;;;;;;5.95;3.67;;;16.90;77.90;;;;;;5013308;28;20088;-81
2022/09/11 05:18:42;;;;;;;9.48;4.40;;;16.90;78.00;;;;;;4996937;28;20153;-81
2022/09/11 05:21:12;;;;;;;7.47;4.47;;;16.90;78.20;;;;;;5013390;28;20021;-81
2022/09/11 05:23:38;;;;;;;;;;;16.80;78.40;;;;;;4996289;28;20089;-81
2022/09/11 05:26:05;;;;;;;7.18;3.17;;;16.80;78.60;;;;;;4997142;28;19913;-81
2022/09/11 05:28:34;;;;;;;8.18;3.88;;;16.80;78.30;;;;;;4996682;28;20034;-81
2022/09/11 05:31:01;;;;;;;8.65;3.72;;;16.80;78.30;;;;;;4994963;28;20038;-81
2022/09/11 05:33:27;;;;;;;7.20;4.13;;;16.90;78.20;;;;;;4996583;28;20022;-81
2022/09/11 05:35:54;;;;;;;9.13;4.45;;;16.80;78.30;;;;;;5000218;28;20061;-80
2022/09/11 05:38:21;;;;;;;8.23;4.10;;;16.80;78.80;;;;;;4996705;28;20026;-81
2022/09/11 05:40:49;;;;;;;6.75;4.18;;;16.70;78.90;;;;;;5031508;28;20045;-81
2022/09/11 05:43:16;;;;;;;8.60;4.28;;;16.80;78.70;;;;;;5005849;28;20050;-81
2022/09/11 05:45:44;;;;;;;7.47;4.30;;;16.80;78.60;;;;;;4996952;28;20113;-81
2022/09/11 05:48:11;;;;;;;6.75;4.13;;;16.80;78.60;;;;;;4996311;28;20498;-81
2022/09/11 05:50:38;;;;;;;8.10;4.18;;;16.80;78.50;;;;;;5003800;28;20107;-81
2022/09/11 05:53:07;;;;;;;9.23;4.15;;;16.90;78.30;;;;;;5014991;28;20034;-81
2022/09/11 05:55:36;;;;;;;5.75;3.47;;;16.80;78.60;;;;;;4996902;28;20131;-81
2022/09/11 05:58:01;;;;;;;7.60;3.90;;;16.80;78.70;;;;;;5002737;28;20026;-81
2022/09/11 06:00:29;;;;;;;7.32;4.20;;;16.90;78.60;;;;;;5014094;28;20037;-81
2022/09/11 06:02:55;;;;;;;7.22;3.83;;;16.80;78.70;;;;;;5011934;28;20032;-81
2022/09/11 06:05:20;;;;;;;8.55;5.45;;;16.80;78.80;;;;;;5014692;28;20034;-81
2022/09/11 06:07:46;;;;;;;7.95;4.35;;;16.80;78.80;;;;;;4991906;28;20029;-81
2022/09/11 06:10:12;;;;;;;7.65;4.32;;;16.80;78.80;;;;;;5014600;28;20152;-81
2022/09/11 06:12:37;;;;;;;9.18;5.20;;;16.80;78.90;;;;;;5013466;28;20054;-82
2022/09/11 06:15:03;;;;;;;7.88;4.22;;;16.80;78.90;;;;;;5008946;28;20034;-82
2022/09/11 06:17:29;;;;;;;7.70;4.85;;;16.80;79.10;;;;;;4994364;28;20026;-80
2022/09/11 06:19:55;;;;;;;12.85;4.80;;;16.80;79.30;;;;;;5012811;28;20021;-81
2022/09/11 06:22:20;;;;;;;8.35;4.07;;;16.90;79.40;;;;;;4992472;28;20120;-81
2022/09/11 06:24:47;;;;;;;8.00;3.70;;;17.00;79.10;;;;;;5014530;28;20026;-81
2022/09/11 06:27:14;;;;;;;6.82;3.55;;;17.10;79.10;;;;;;5011431;28;20025;-78
2022/09/11 06:29:40;;;;;;;7.57;4.57;;;17.20;79.00;;;;;;4998691;28;20034;-77
2022/09/11 06:32:05;;;;;;;10.02;4.20;;;17.20;78.80;;;;;;5002251;28;20617;-79
2022/09/11 06:34:31;;;;;;;7.43;4.68;;;17.30;78.90;;;;;;5007282;28;20026;-76
2022/09/11 06:36:57;;;;;;;10.32;3.92;;;17.40;78.40;;;;;;5019434;28;20101;-77
2022/09/11 06:39:23;;;;;;;8.73;3.60;;;17.50;78.30;;;;;;5013856;28;20058;-77
2022/09/11 06:41:49;;;;;;;7.07;3.97;;;17.60;78.00;;;;;;4999711;28;20105;-76
2022/09/11 06:44:15;;;;;;;6.05;3.90;;;17.70;77.50;;;;;;4998166;28;20080;-75
2022/09/11 06:46:41;;;;;;;7.10;3.92;;;17.70;77.00;;;;;;4999400;28;20125;-76
2022/09/11 06:49:06;;;;;;;6.70;4.03;;;17.50;77.60;;;;;;4999430;28;20030;-76
2022/09/11 06:51:33;;;;;;;6.18;4.10;;;17.50;78.00;;;;;;4999543;28;20030;-77
2022/09/11 06:54:01;;;;;;;6.78;4.18;;;17.50;77.80;;;;;;5024901;28;20025;-79
2022/09/11 06:56:27;;;;;;;6.90;4.03;;;17.60;77.90;;;;;;4999562;28;20038;-79
2022/09/11 06:58:53;;;;;;;8.00;4.65;;;17.70;77.70;;;;;;5018330;28;20700;-77
2022/09/11 07:01:20;;;;;;;6.35;4.28;;;17.70;77.40;;;;;;4999412;28;20045;-76
2022/09/11 07:03:48;;;;;;;6.25;4.60;;;17.70;77.60;;;;;;4999606;28;20552;-76
2022/09/11 07:06:16;;;;;;;9.45;4.47;;;17.70;77.60;;;;;;4999990;28;20030;-77
2022/09/11 07:08:42;;;;;;;8.05;4.03;;;17.60;77.50;;;;;;5017997;28;20537;-76
2022/09/11 07:11:12;;;;;;;6.25;3.83;;;17.60;77.60;;;;;;5015518;28;20595;-77
2022/09/11 07:13:38;;;;;;;6.30;3.50;;;17.70;77.60;;;;;;4997423;28;20104;-78
2022/09/11 07:16:07;;;;;;;7.18;4.32;;;17.70;77.70;;;;;;5017831;28;20052;-76
2022/09/11 07:18:38;;;;;;;5.38;3.70;;;17.70;77.50;;;;;;5000360;28;20060;-76
2022/09/11 07:21:10;;;;;;;4.68;3.58;;;17.80;77.30;;;;;;5018121;28;20413;-76
2022/09/11 07:23:36;;;;;;;6.65;4.28;;;18.00;77.00;;;;;;5018322;28;20021;-76
2022/09/11 07:26:08;;;;;;;5.90;3.60;;;18.10;76.50;;;;;;5012585;28;20149;-76
2022/09/11 07:28:34;;;;;;;6.38;3.75;;;18.10;76.40;;;;;;4991857;28;20030;-77
2022/09/11 07:31:15;;;;;;;6.85;3.92;;;18.20;76.40;;;;;;4998616;28;20398;-76
2022/09/11 07:33:45;;;;;;;7.72;3.90;;;18.20;76.00;;;;;;4995916;28;20026;-76
2022/09/11 07:36:13;;;;;;;6.20;3.55;;;18.30;75.80;;;;;;4983983;28;20726;-76
2022/09/11 07:38:46;;;;;;;9.30;3.90;;;18.40;75.60;;;;;;5015225;28;20030;-77
2022/09/11 07:41:13;;;;;;;7.00;3.42;;;18.50;75.50;;;;;;4996463;28;20042;-77
2022/09/11 07:43:49;;;;;;;7.10;3.25;;;18.60;75.10;;;;;;5017370;28;20811;-77
2022/09/11 07:46:15;;;;;;;5.82;3.90;;;18.80;75.00;;;;;;4998241;28;20022;-76
2022/09/11 07:48:44;;;;;;;9.10;3.28;;;18.90;74.60;;;;;;5030445;28;20113;-77
2022/09/11 07:51:12;;;;;;;5.55;2.85;;;19.00;74.10;;;;;;4993372;28;20038;-76
2022/09/11 07:53:40;;;;;;;5.63;2.92;;;19.10;73.80;;;;;;5001372;28;20036;-76
2022/09/11 07:56:08;;;;;;;5.65;3.00;;;19.10;73.20;;;;;;5013125;28;20030;-77
2022/09/11 07:58:37;;;;;;;5.20;2.58;;;19.20;73.10;;;;;;5015934;28;20030;-76
2022/09/11 08:01:04;;;;;;;6.68;3.38;;;19.20;73.40;;;;;;4995000;28;20515;-77
2022/09/11 08:03:31;;;;;;;6.65;3.28;;;19.30;72.70;;;;;;5014877;28;20097;-76
2022/09/11 08:06:02;;;;;;;6.18;2.67;;;19.20;73.30;;;;;;5011065;28;20063;-77
2022/09/11 08:08:28;;;;;;;6.70;3.03;;;19.30;73.20;;;;;;4997879;28;20034;-77
2022/09/11 08:11:15;;;;;;;6.65;3.13;;;19.40;72.70;;;;;;5023469;28;20041;-77
2022/09/11 08:13:41;;;;;;;4.25;2.60;;;19.50;73.00;;;;;;5036473;28;20081;-77
2022/09/11 08:16:07;;;;;;;5.35;2.83;;;19.70;72.60;;;;;;5015896;28;20592;-77
2022/09/11 08:18:36;;;;;;;5.35;2.28;;;19.70;72.30;;;;;;5013680;28;20045;-77
2022/09/11 08:21:07;;;;;;;6.10;2.40;;;19.80;72.20;;;;;;4995668;28;20463;-76
2022/09/11 08:23:33;;;;;;;3.47;2.55;;;20.00;72.10;;;;;;5011887;28;20033;-77
2022/09/11 08:26:06;;;;;;;3.65;2.25;;;20.20;71.70;;;;;;5021315;28;20048;-77
2022/09/11 08:28:33;;;;;;;3.70;2.33;;;20.20;71.50;;;;;;5010590;28;20040;-77
2022/09/11 08:31:00;;;;;;;3.60;2.10;;;20.10;71.60;;;;;;5015573;28;20022;-77
2022/09/11 08:33:26;;;;;;;4.50;2.28;;;20.10;71.50;;;;;;4998207;28;20064;-76
2022/09/11 08:35:52;;;;;;;6.50;1.70;;;20.10;71.40;;;;;;4998309;28;20060;-77
2022/09/11 08:38:18;;;;;;;2.08;1.63;;;19.90;71.00;;;;;;5015082;28;20026;-77
2022/09/11 08:40:44;;;;;;;4.35;2.00;;;19.90;71.60;;;;;;4973796;28;20053;-77
2022/09/11 08:43:23;;;;;;;4.70;2.15;;;20.00;72.30;;;;;;5014217;28;20548;-77
2022/09/11 08:45:54;;;;;;;3.33;1.70;;;20.00;71.90;;;;;;5013681;28;20036;-76
2022/09/11 08:48:27;;;;;;;4.78;1.92;;;20.10;72.00;;;;;;4996034;28;20034;-77
2022/09/11 08:50:53;;;;;;;3.80;1.60;;;20.20;70.60;;;;;;5010027;28;20056;-76
2022/09/11 08:53:19;;;;;;;3.30;1.48;;;20.30;69.80;;;;;;5016216;28;20029;-77
2022/09/11 08:55:53;;;;;;;3.63;1.65;;;20.40;69.80;;;;;;4997786;28;20037;-80
2022/09/11 08:58:33;;;;;;;3.80;1.48;;;20.60;68.80;;;;;;5015654;28;20032;-76
2022/09/11 09:01:24;;;;;;;2.47;1.50;;;20.80;67.80;;;;;;5013604;28;20033;-75
2022/09/11 09:04:07;;;;;;;5.20;1.30;;;21.30;67.20;;;;;;5013949;28;20513;-76
2022/09/11 09:06:45;;;;;;;4.15;1.20;;;22.00;65.10;;;;;;5013209;28;20084;-77
2022/09/11 09:09:51;;;;;;;8.60;8.10;;;22.80;62.70;;;;;;5016371;28;20064;-77
2022/09/11 09:12:38;;;;;;;3.30;1.83;;;23.70;59.40;;;;;;4987683;28;20065;-77
2022/09/11 09:15:16;;;;;;;3.10;1.23;;;23.90;58.20;;;;;;5015389;28;20493;-77
2022/09/11 09:17:59;;;;;;;1.73;1.23;;;24.70;57.50;;;;;;5024950;28;20021;-77
2022/09/11 09:20:30;;;;;;;3.08;1.08;;;24.90;56.30;;;;;;5023070;28;20375;-77
2022/09/11 09:23:10;;;;;;;3.05;1.23;;;24.60;56.60;;;;;;5021946;28;20025;-76
2022/09/11 09:25:40;;;;;;;5.03;1.50;;;24.20;56.50;;;;;;5025614;28;20409;-77
2022/09/11 09:28:28;;;;;;;1.85;1.00;;;23.70;57.80;;;;;;5016975;28;20560;-77
2022/09/11 09:30:57;;;;;;;2.45;0.88;;;23.30;58.50;;;;;;5016719;28;20084;-76
2022/09/11 09:33:29;;;;;;;2.60;0.80;;;22.90;59.10;;;;;;5025793;28;20097;-77
2022/09/11 09:35:56;;;;;;;2.25;0.95;;;22.90;60.60;;;;;;5029351;28;20037;-77
2022/09/11 09:38:27;;;;;;;4.15;2.10;;;23.00;58.00;;;;;;5009530;28;20029;-77
2022/09/11 09:41:18;;;;;;;3.13;1.00;;;23.30;56.90;;;;;;5004763;28;20071;-77
2022/09/11 09:43:58;;;;;;;1.83;1.40;;;23.80;55.70;;;;;;5030136;28;20145;-77
2022/09/11 09:46:40;;;;;;;2.00;1.15;;;24.30;52.30;;;;;;5002907;28;20033;-77
2022/09/11 09:49:09;;;;;;;2.58;1.10;;;25.20;52.30;;;;;;5014812;28;20018;-77
2022/09/11 09:51:36;;;;;;;4.53;0.90;;;25.50;50.90;;;;;;5013291;28;20021;-77
2022/09/11 09:54:02;;;;;;;2.85;1.55;;;25.30;51.40;;;;;;5015973;28;20519;-77
2022/09/11 09:56:30;;;;;;;25.02;24.05;;;25.10;51.30;;;;;;5014657;28;20652;-77
2022/09/11 09:59:11;;;;;;;2.58;0.95;;;25.30;51.60;;;;;;4995508;28;20033;-77
2022/09/11 10:01:46;;;;;;;2.17;1.10;;;25.80;50.40;;;;;;4995513;28;20040;-77
2022/09/11 10:04:30;;;;;;;1.55;0.90;;;26.50;47.30;;;;;;5015057;28;20105;-77
2022/09/11 10:07:09;;;;;;;2.60;1.00;;;27.00;45.70;;;;;;5025257;28;20034;-77
2022/09/11 10:09:43;;;;;;;1.98;0.90;;;27.10;45.00;;;;;;5011712;28;20022;-77
2022/09/11 10:12:19;;;;;;;2.63;0.80;;;27.30;45.60;;;;;;4997764;28;20168;-77
2022/09/11 10:14:55;;;;;;;3.55;0.80;;;27.30;46.80;;;;;;5014076;28;20022;-76
2022/09/11 10:17:28;;;;;;;2.97;0.88;;;27.10;47.80;;;;;;5013271;28;20033;-77
2022/09/11 10:19:56;;;;;;;2.97;0.90;;;26.50;47.80;;;;;;4995717;28;20712;-81
2022/09/11 10:22:31;;;;;;;3.05;0.80;;;25.80;48.40;;;;;;4995713;28;20048;-79
2022/09/11 10:25:03;;;;;;;3.42;1.00;;;25.30;49.00;;;;;;4993942;28;20625;-78
2022/09/11 10:27:34;;;;;;;4.15;0.70;;;24.90;50.20;;;;;;5010547;28;20083;-81
2022/09/11 10:30:03;;;;;;;1.95;0.50;;;24.50;51.20;;;;;;5015219;28;20022;-80
2022/09/11 10:32:29;;;;;;;3.30;1.05;;;24.40;52.80;;;;;;5028728;28;20029;-79
2022/09/11 10:34:56;;;;;;;4.07;0.90;;;24.30;52.50;;;;;;5027038;28;20034;-75
2022/09/11 10:37:30;;;;;;;1.50;0.77;;;24.00;52.90;;;;;;5012293;28;20034;-77
2022/09/11 10:40:07;;;;;;;3.83;1.10;;;24.00;53.00;;;;;;4997769;28;20497;-81
2022/09/11 10:42:34;;;;;;;1.40;0.70;;;24.00;54.90;;;;;;5006132;28;20080;-78
2022/09/11 10:45:15;;;;;;;2.70;0.65;;;24.00;54.00;;;;;;4995088;28;20026;-75
2022/09/11 10:47:42;;;;;;;1.75;0.60;;;24.00;54.20;;;;;;5009812;28;20084;-79
2022/09/11 10:50:16;;;;;;;1.80;0.80;;;24.00;53.50;;;;;;5015313;28;20026;-77
2022/09/11 10:52:57;;;;;;;1.70;0.70;;;24.00;54.40;;;;;;5008743;28;20107;-77
2022/09/11 10:55:28;;;;;;;2.38;0.60;;;24.00;54.50;;;;;;5010838;28;20037;-76
2022/09/11 10:58:04;;;;;;;1.98;0.75;;;24.00;53.90;;;;;;5027172;28;20092;-77
2022/09/11 11:00:30;;;;;;;2.33;0.70;;;24.00;54.50;;;;;;5006258;28;20034;-75
2022/09/11 11:02:58;;;;;;;9.48;2.30;;;24.00;53.90;;;;;;5030336;28;20030;-78
2022/09/11 11:05:52;;;;;;;4.25;0.80;;;24.00;54.50;;;;;;5001704;28;20022;-79
2022/09/11 11:08:49;;;;;;;3.00;0.80;;;24.00;54.40;;;;;;5000983;28;20164;-77
2022/09/11 11:11:32;;;;;;;1.98;0.70;;;24.10;55.20;;;;;;5020477;28;20089;-77
2022/09/11 11:14:06;;;;;;;2.13;0.80;;;24.10;53.70;;;;;;5000233;28;20031;-77
2022/09/11 11:17:09;;;;;;;1.42;0.77;;;24.20;54.50;;;;;;4997633;28;20029;-77
2022/09/11 11:20:15;;;;;;;3.30;1.10;;;24.20;54.30;;;;;;4999222;28;20034;-78
2022/09/11 11:23:12;;;;;;;0.77;0.40;;;24.30;54.00;;;;;;4998465;28;20042;-76
2022/09/11 11:26:05;;;;;;;4.15;0.73;;;24.30;54.00;;;;;;5014287;28;20037;-76
2022/09/11 11:28:53;;;;;;;1.98;0.98;;;24.30;53.00;;;;;;5014211;28;20046;-77
2022/09/11 11:31:43;;;;;;;1.65;1.08;;;24.30;53.50;;;;;;4997992;28;20037;-77
2022/09/11 11:34:29;;;;;;;3.65;1.10;;;24.40;54.90;;;;;;5003930;28;20018;-77
2022/09/11 11:37:03;;;;;;;3.60;0.95;;;24.50;53.70;;;;;;5018600;28;20048;-77
2022/09/11 11:39:37;;;;;;;1.60;0.90;;;24.60;54.10;;;;;;5015818;28;20036;-79
2022/09/11 11:42:11;;;;;;;1.73;0.80;;;24.60;53.50;;;;;;5017932;28;20399;-78
2022/09/11 11:44:57;;;;;;;2.25;1.15;;;24.60;53.30;;;;;;5014998;28;20085;-75
2022/09/11 11:47:29;;;;;;;2.80;0.80;;;24.60;54.00;;;;;;5014284;28;20138;-78
2022/09/11 11:50:07;;;;;;;2.97;1.10;;;24.60;54.00;;;;;;5015704;28;20509;-78
2022/09/11 11:52:51;;;;;;;3.88;0.90;;;24.60;53.30;;;;;;5014322;28;20061;-78
2022/09/11 11:55:24;;;;;;;4.20;1.58;;;24.60;53.30;;;;;;4991294;28;20036;-79
2022/09/11 11:58:04;;;;;;;2.40;0.73;;;24.60;52.80;;;;;;4967473;28;20069;-77
2022/09/11 12:00:37;;;;;;;1.13;0.68;;;24.70;53.40;;;;;;5013853;28;20060;-78
2022/09/11 12:03:11;;;;;;;1.80;0.65;;;24.70;52.60;;;;;;5015454;28;20049;-78
2022/09/11 12:05:37;;;;;;;1.85;0.70;;;24.80;52.90;;;;;;5016305;28;20029;-78
2022/09/11 12:08:03;;;;;;;2.15;0.70;;;24.80;50.80;;;;;;5014172;28;20470;-77
2022/09/11 12:10:33;;;;;;;2.63;0.73;;;24.80;50.70;;;;;;4993305;28;20026;-77
2022/09/11 12:13:03;;;;;;;;;;;24.80;52.00;;;;;;4995438;28;20033;-78
2022/09/11 12:15:30;;;;;;;1.60;0.80;;;24.80;51.40;;;;;;5014439;28;20403;-78
2022/09/11 12:17:59;;;;;;;1.25;0.55;;;24.80;52.30;;;;;;4993164;28;20022;-78
2022/09/11 12:20:38;;;;;;;0.90;0.40;;;24.90;50.10;;;;;;4996196;28;20075;-78
2022/09/11 12:23:06;;;;;;;1.88;0.70;;;24.90;51.10;;;;;;5004431;28;20018;-78
2022/09/11 12:25:34;;;;;;;1.30;0.68;;;24.90;50.80;;;;;;5015166;28;20083;-78
2022/09/11 12:28:20;;;;;;;2.28;0.68;;;24.90;51.90;;;;;;4997108;28;20025;-78
2022/09/11 12:31:07;;;;;;;1.77;0.50;;;25.00;51.30;;;;;;4996411;28;20493;-78
2022/09/11 12:33:47;;;;;;;1.77;0.70;;;25.10;52.90;;;;;;5015546;28;20014;-78
2022/09/11 12:36:55;;;;;;;1.15;0.43;;;25.20;51.80;;;;;;5022177;28;20034;-78
2022/09/11 12:39:24;;;;;;;3.17;0.55;;;25.20;51.20;;;;;;5029471;28;20026;-78
2022/09/11 12:41:49;;;;;;;1.00;0.50;;;25.30;51.10;;;;;;5014690;28;20037;-77
2022/09/11 12:44:50;;;;;;;0.95;0.47;;;25.30;51.20;;;;;;5013249;28;20041;-77
2022/09/11 12:47:38;;;;;;;1.05;0.50;;;25.30;51.40;;;;;;5013814;28;20557;-77
2022/09/11 12:50:03;;;;;;;3.33;0.80;;;25.30;50.40;;;;;;5015217;28;20601;-80
2022/09/11 12:52:43;;;;;;;2.80;0.65;;;25.30;51.80;;;;;;5007588;28;20070;-78
2022/09/11 12:55:34;;;;;;;0.95;0.50;;;25.30;51.70;;;;;;5012529;28;20024;-81
2022/09/11 12:58:19;;;;;;;2.55;0.60;;;25.30;49.80;;;;;;4997230;28;20062;-83
2022/09/11 13:00:47;;;;;;;2.90;0.43;;;25.30;51.10;;;;;;4995989;28;20026;-83
2022/09/11 13:03:20;;;;;;;0.85;0.32;;;25.30;50.60;;;;;;5013699;28;20125;-87
2022/09/11 13:05:58;;;;;;;1.52;0.50;;;25.30;51.50;;;;;;5013864;28;20026;-78
2022/09/11 13:08:28;;;;;;;2.80;0.40;;;25.40;51.80;;;;;;5015232;28;20960;-79
2022/09/11 13:11:33;;;;;;;1.65;0.70;;;25.50;51.50;;;;;;5004534;28;20030;-79
2022/09/11 13:13:59;;;;;;;1.75;0.50;;;25.50;51.00;;;;;;4996799;28;20050;-79